Data for 02/03/2010

Time Sea-Level Adjusted Pressure Absolute Pressure Temperature Relative Humidity Dew Point   
(mb) (inHg) (mb) (inHg) (C) (F) (%) (C) (F)
00:05 1013 29.91 842 24.86 -1 30.1 71 -5.7 21.8
00:10 1013 29.91 842 24.86 -1 30.3 69 -5.9 21.3
00:15 1013 29.91 842 24.86 -0.9 30.3 68 -6.1 21.1
00:20 1013 29.91 842 24.86 -1 30.3 67 -6.3 20.7
00:25 1013 29.91 842 24.86 -0.9 30.3 69 -6 21.3
00:30 1013 29.91 842 24.86 -0.9 30.4 68 -6 21.2
00:35 1013 29.91 842 24.86 -0.8 30.5 70 -5.7 21.7
00:40 1013 29.91 842 24.86 -1 30.1 71 -5.7 21.7
00:45 1013 29.91 842 24.86 -1.4 29.5 73 -5.7 21.8
00:50 1013 29.91 842 24.86 -1.5 29.3 68 -6.7 20
00:55 1013 29.91 842 24.86 -0.6 31 63 -6.8 19.8
01:00 1013 29.91 842 24.86 -0.2 31.7 66 -5.8 21.6
01:05 1013 29.91 842 24.86 -0.9 30.4 71 -5.6 22
01:10 1013 29.91 842 24.86 -1.7 28.9 75 -5.6 21.9
01:15 1013 29.91 842 24.86 -2.3 27.9 76 -6 21.3
01:20 1013 29.91 842 24.86 -2 28.3 73 -6.3 20.7
01:25 1013 29.91 842 24.86 -1.6 29.1 71 -6.2 20.9
01:30 1013 29.91 842 24.86 -1.9 28.6 73 -6.1 20.9
01:35 1013 29.91 842 24.86 -2 28.4 73 -6.3 20.7
01:40 1013 29.91 842 24.86 -2.1 28.2 74 -6.2 20.9
01:45 1013 29.91 842 24.86 -2.3 27.9 74 -6.3 20.6
01:50 1013 29.91 842 24.86 -2.9 26.9 75 -6.6 20.1
01:55 1013 29.91 842 24.86 -2.6 27.3 73 -6.8 19.7
02:00 1013 29.91 842 24.86 -2.3 27.8 71 -6.9 19.6
02:05 1013 29.91 842 24.86 -2.9 26.8 74 -6.9 19.7
02:10 1013 29.91 842 24.86 -3.4 25.9 75 -7.2 19
02:15 1013 29.91 842 24.86 -3.1 26.4 72 -7.4 18.6
02:20 1013 29.91 842 24.86 -2.7 27.2 71 -7.3 18.9
02:25 1013 29.91 842 24.86 -3 26.6 70 -7.8 18
02:30 1013 29.91 842 24.86 -3.3 26.1 69 -8.2 17.3
02:35 1013 29.91 842 24.86 -3.2 26.2 69 -8.2 17.3
02:40 1013 29.91 842 24.86 -3.3 26.1 69 -8.2 17.3
02:45 1013 29.91 842 24.86 -3.1 26.3 68 -8.2 17.3
02:50 1013 29.91 842 24.86 -3.2 26.3 69 -8.1 17.5
02:55 1013 29.91 842 24.86 -3.3 26 68 -8.4 16.9
03:00 1013 29.91 842 24.86 -3.5 25.8 68 -8.5 16.7
03:05 1013 29.91 842 24.86 -3.6 25.6 69 -8.5 16.6
03:10 1013 29.91 842 24.86 -3.7 25.3 69 -8.6 16.5
03:15 1013 29.91 842 24.86 -3.7 25.3 68 -8.8 16.2
03:20 1013 29.91 842 24.86 -3.5 25.7 68 -8.6 16.5
03:25 1013 29.91 842 24.86 -3.5 25.8 68 -8.5 16.6
03:30 1013 29.91 842 24.86 -3.7 25.4 69 -8.5 16.7
03:35 1013 29.91 842 24.86 -3.6 25.5 68 -8.7 16.4
03:40 1012 29.88 842 24.86 -3.5 25.8 67 -8.8 16.2
03:45 1012 29.88 842 24.86 -3.6 25.5 67 -8.8 16.2
03:50 1012 29.88 842 24.86 -3.8 25.2 68 -8.9 16
03:55 1012 29.88 842 24.86 -3.6 25.5 66 -9.1 15.7
04:00 1012 29.88 842 24.86 -3.5 25.7 66 -9 15.7
04:05 1013 29.91 842 24.86 -3.6 25.5 66 -9.2 15.5
04:10 1013 29.91 842 24.86 -3.6 25.6 66 -9 15.9
04:15 1012 29.88 842 24.86 -3.5 25.8 66 -9 15.9
04:20 1012 29.88 842 24.86 -3.8 25.2 67 -9.1 15.6
04:25 1012 29.88 842 24.86 -4 24.8 67 -9.2 15.4
04:30 1012 29.88 842 24.86 -4.1 24.7 67 -9.3 15.2
04:35 1012 29.88 842 24.86 -4.6 23.7 69 -9.5 14.9
04:40 1012 29.88 842 24.86 -4.7 23.6 69 -9.6 14.7
04:45 1013 29.91 842 24.86 -4.3 24.3 67 -9.5 15
04:50 1013 29.91 842 24.86 -4.3 24.3 68 -9.3 15.3
04:55 1012 29.88 842 24.86 -4.1 24.6 67 -9.3 15.2
05:00 1012 29.88 842 24.86 -4.4 24 67 -9.6 14.8
05:05 1012 29.88 842 24.86 -4.6 23.8 68 -9.6 14.7
05:10 1012 29.88 842 24.86 -4.4 24 67 -9.6 14.7
05:15 1012 29.88 842 24.86 -4.4 24.1 67 -9.6 14.8
05:20 1012 29.88 842 24.86 -4.4 24 68 -9.6 14.8
05:25 1012 29.88 842 24.86 -4.6 23.7 68 -9.7 14.6
05:30 1012 29.88 842 24.86 -5 23.1 69 -9.8 14.3
05:35 1012 29.88 842 24.86 -5.3 22.5 70 -9.9 14.2
05:40 1012 29.88 842 24.86 -5.2 22.6 70 -10 14
05:45 1013 29.91 842 24.86 -5.1 22.8 69 -9.9 14.2
05:50 1013 29.91 842 24.86 -4.8 23.4 69 -9.7 14.6
05:55 1012 29.88 842 24.86 -4.6 23.7 68 -9.7 14.6
06:00 1013 29.91 842 24.86 -4.5 23.9 67 -9.7 14.6
06:05 1013 29.91 842 24.86 -4.5 24 67 -9.6 14.7
06:10 1013 29.91 842 24.86 -4.5 23.9 68 -9.6 14.7
06:15 1013 29.91 842 24.86 -4.6 23.8 68 -9.6 14.8
06:20 1012 29.88 842 24.86 -4.7 23.6 68 -9.8 14.4
06:25 1012 29.88 842 24.86 -4.9 23.2 69 -9.7 14.5
06:30 1012 29.88 842 24.86 -5 23.1 69 -9.7 14.5
06:35 1012 29.88 842 24.86 -4.7 23.6 68 -9.6 14.6
06:40 1012 29.88 842 24.86 -4.6 23.8 67 -9.8 14.4
06:45 1012 29.88 842 24.86 -4.6 23.7 68 -9.6 14.7
06:50 1012 29.88 842 24.86 -5.3 22.4 71 -9.8 14.4
06:55 1012 29.88 842 24.86 -5.3 22.5 70 -9.9 14.1
07:00 1012 29.88 842 24.86 -5.1 22.9 70 -9.7 14.5
07:05 1012 29.88 842 24.86 -5.1 22.9 70 -9.8 14.4
07:10 1012 29.88 842 24.86 -5.1 22.8 69 -9.9 14.2
07:15 1012 29.88 842 24.86 -5.5 22.1 71 -10 14.1
07:20 1012 29.88 842 24.86 -6.4 20.5 73 -10.4 13.3
07:25 1012 29.88 842 24.86 -6.7 19.9 76 -10.3 13.4
07:30 1012 29.88 842 24.86 -5.8 21.6 72 -10 14
07:35 1012 29.88 842 24.86 -5.1 22.7 68 -10.1 13.8
07:40 1012 29.88 842 24.86 -5 22.9 69 -9.8 14.3
07:45 1012 29.88 842 24.86 -5.5 22.1 71 -9.9 14.1
07:50 1012 29.88 842 24.86 -5.7 21.7 71 -10.1 13.8
07:55 1012 29.88 842 24.86 -5.8 21.6 71 -10.2 13.7
08:00 1012 29.88 842 24.86 -5.8 21.6 72 -10 14
08:05 1012 29.88 842 24.86 -5.5 22.1 71 -9.9 14.1
08:10 1012 29.88 842 24.86 -4.9 23.1 68 -10 14
08:15 1012 29.88 842 24.86 -4.7 23.5 67 -9.9 14.3
08:20 1012 29.88 842 24.86 -4.9 23.1 68 -9.9 14.1
08:25 1012 29.88 842 24.86 -5.1 22.7 68 -10.1 13.8
08:30 1012 29.88 842 24.86 -5.1 22.8 68 -10.2 13.6
08:35 1012 29.88 842 24.86 -5.1 22.8 68 -10.2 13.7
08:40 1013 29.91 842 24.86 -5.1 22.8 68 -10.2 13.7
08:45 1013 29.91 842 24.86 -5 22.9 67 -10.2 13.6
08:50 1013 29.91 842 24.86 -4.7 23.6 66 -10.2 13.7
08:55 1013 29.91 842 24.86 -4.3 24.3 64 -10.1 13.8
09:00 1013 29.91 842 24.86 -4.1 24.6 64 -10 14
09:05 1013 29.91 842 24.86 -3.4 25.8 61 -9.9 14.3
09:10 1013 29.91 842 24.86 -3 26.6 60 -9.8 14.4
09:15 1013 29.91 842 24.86 -2.8 27 61 -9.3 15.3
09:20 1013 29.91 842 24.86 -3.1 26.5 61 -9.5 14.9
09:25 1013 29.91 842 24.86 -3.1 26.3 62 -9.4 15
09:30 1013 29.91 842 24.86 -2.9 26.8 60 -9.5 14.8
09:35 1013 29.91 842 24.86 -2.5 27.5 59 -9.5 14.9
09:40 1013 29.91 842 24.86 -2.1 28.2 57 -9.4 15
09:45 1013 29.91 842 24.86 -1.9 28.6 56 -9.4 15
09:50 1013 29.91 842 24.86 -1.1 30 54 -9.3 15.3
09:55 1013 29.91 842 24.86 -1 30.1 56 -8.7 16.3
10:00 1013 29.91 842 24.86 -0.9 30.4 55 -8.9 16
10:05 1013 29.91 842 24.86 -0.7 30.7 54 -8.9 16
10:10 1013 29.91 842 24.86 -0.5 31 54 -8.8 16.2
10:15 1013 29.91 842 24.86 -0.1 31.8 51 -9.1 15.6
10:20 1013 29.91 842 24.86 0.5 32.8 49 -9 15.9
10:25 1013 29.91 842 24.86 1 33.8 48 -8.8 16.2
10:30 1012 29.88 842 24.86 1.1 34.1 48 -8.6 16.5
10:35 1012 29.88 842 24.86 1 33.8 50 -8.4 16.8
10:40 1012 29.88 842 24.86 0.2 32.4 52 -8.5 16.8
10:45 1012 29.88 842 24.86 -0.5 31.1 54 -8.6 16.6
10:50 1012 29.88 842 24.86 -0.4 31.3 55 -8.4 16.9
10:55 1012 29.88 841 24.83 -0.6 30.9 56 -8.4 16.8
11:00 1012 29.88 841 24.83 -1 30.3 56 -8.7 16.3
11:05 1012 29.88 841 24.83 -0.8 30.5 55 -8.8 16.2
11:10 1012 29.88 841 24.83 -0.3 31.4 55 -8.3 17.1
11:15 1012 29.88 841 24.83 0.6 33 51 -8.5 16.7
11:20 1012 29.88 841 24.83 0.8 33.4 53 -7.8 18
11:25 1012 29.88 841 24.83 0.7 33.3 54 -7.6 18.4
11:30 1012 29.88 841 24.83 1.1 33.9 51 -8.1 17.5
11:35 1012 29.88 841 24.83 1.7 35.1 50 -7.6 18.2
11:40 1012 29.88 841 24.83 1.8 35.2 51 -7.3 18.8
11:45 1012 29.88 841 24.83 1.6 35 52 -7.2 19
11:50 1012 29.88 841 24.83 1.4 34.5 52 -7.4 18.7
11:55 1012 29.88 841 24.83 2 35.6 48 -7.8 18
12:00 1012 29.88 841 24.83 2.3 36.2 49 -7.2 19
12:05 1012 29.88 841 24.83 2.5 36.6 49 -7.2 19.1
12:10 1012 29.88 841 24.83 2.2 36 52 -6.7 19.9
12:15 1012 29.88 841 24.83 2 35.6 50 -7.3 18.8
12:20 1012 29.88 841 24.83 2.3 36.2 50 -7.1 19.1
12:25 1012 29.88 841 24.83 2.7 36.9 48 -7.1 19.2
12:30 1012 29.88 841 24.83 2.5 36.6 49 -7.2 19.1
12:35 1012 29.88 841 24.83 2.3 36.1 51 -6.9 19.7
12:40 1012 29.88 841 24.83 2.3 36.2 52 -6.6 20.2
12:45 1012 29.88 841 24.83 2.2 36 51 -6.9 19.6
12:50 1012 29.88 841 24.83 2.2 35.9 52 -6.7 19.9
12:55 1011 29.85 841 24.83 2.5 36.6 51 -6.7 19.9
13:00 1011 29.85 841 24.83 2.1 35.8 52 -6.8 19.8
13:05 1011 29.85 841 24.83 1.6 34.9 53 -6.9 19.7
13:10 1011 29.85 841 24.83 1.5 34.7 53 -7.1 19.2
13:15 1011 29.85 840 24.81 1.4 34.6 53 -7.2 19.1
13:20 1011 29.85 840 24.81 1.4 34.5 54 -7 19.4
13:25 1011 29.85 840 24.81 1.6 34.8 53 -7 19.5
13:30 1011 29.85 840 24.81 1.8 35.3 52 -7.1 19.3
13:35 1011 29.85 840 24.81 1.8 35.2 51 -7.4 18.7
13:40 1011 29.85 840 24.81 1.8 35.2 52 -7.1 19.2
13:45 1011 29.85 840 24.81 1.7 35 50 -7.8 18
13:50 1011 29.85 840 24.81 2 35.6 50 -7.4 18.7
13:55 1011 29.85 840 24.81 2.1 35.7 50 -7.3 18.9
14:00 1011 29.85 840 24.81 2.2 36 47 -7.9 17.7
14:05 1011 29.85 840 24.81 3 37.3 46 -7.5 18.5
14:10 1011 29.85 840 24.81 2.6 36.6 48 -7.3 18.9
14:15 1010 29.83 840 24.81 2.4 36.3 47 -7.7 18.1
14:20 1010 29.83 840 24.81 2.9 37.2 47 -7.2 19
14:25 1010 29.83 839 24.78 2.6 36.8 48 -7.4 18.7
14:30 1010 29.83 839 24.78 2.3 36.1 47 -7.8 17.9
14:35 1010 29.83 839 24.78 2.8 37.1 47 -7.5 18.6
14:40 1010 29.83 839 24.78 2.6 36.6 50 -6.8 19.7
14:45 1010 29.83 839 24.78 1.3 34.4 54 -6.9 19.5
14:50 1010 29.83 839 24.78 0.2 32.4 57 -7.4 18.7
14:55 1010 29.83 839 24.78 -0.1 31.9 57 -7.7 18.2
15:00 1010 29.83 839 24.78 0.8 33.4 54 -7.4 18.7
15:05 1010 29.83 839 24.78 1.7 35.1 50 -7.6 18.4
15:10 1010 29.83 839 24.78 2.7 36.9 47 -7.5 18.4
15:15 1010 29.83 839 24.78 2.6 36.7 50 -6.9 19.7
15:20 1010 29.83 839 24.78 2.5 36.5 50 -6.9 19.6
15:25 1010 29.83 839 24.78 2.1 35.7 49 -7.5 18.5
15:30 1010 29.83 839 24.78 2.2 36 49 -7.5 18.6
15:35 1010 29.83 839 24.78 2.3 36.1 49 -7.5 18.6
15:40 1010 29.83 839 24.78 1.8 35.2 52 -7 19.4
15:45 1010 29.83 839 24.78 1.5 34.7 51 -7.5 18.5
15:50 1010 29.83 839 24.78 1.7 35 52 -7.1 19.3
15:55 1010 29.83 839 24.78 1.8 35.2 52 -6.9 19.5
16:00 1010 29.83 839 24.78 1.9 35.3 50 -7.4 18.7
16:05 1010 29.83 839 24.78 1.8 35.3 53 -6.9 19.6
16:10 1010 29.83 839 24.78 0.9 33.6 54 -7.3 18.8
16:15 1010 29.83 839 24.78 1 33.9 53 -7.5 18.5
16:20 1010 29.83 839 24.78 1.5 34.7 52 -7.3 18.8
16:25 1010 29.83 839 24.78 2.1 35.8 49 -7.5 18.6
16:30 1010 29.83 839 24.78 2.4 36.3 50 -7.1 19.3
16:35 1010 29.83 839 24.78 2 35.6 50 -7.4 18.6
16:40 1010 29.83 839 24.78 1.6 34.9 52 -7.2 19
16:45 1010 29.83 839 24.78 1.4 34.6 52 -7.3 18.9
16:50 1010 29.83 839 24.78 1.1 34 54 -7.3 18.8
16:55 1010 29.83 839 24.78 0.6 33 56 -7.2 19
17:00 1010 29.83 839 24.78 -0.2 31.6 61 -6.8 19.8
17:05 1010 29.83 839 24.78 -1.2 29.9 65 -7 19.4
17:10 1010 29.83 839 24.78 -1.6 29.1 66 -7.1 19.2
17:15 1010 29.83 839 24.78 -1.7 29 67 -7 19.4
17:20 1010 29.83 839 24.78 -1.7 28.9 67 -7.2 19.1
17:25 1010 29.83 839 24.78 -1.8 28.7 67 -7.1 19.2
17:30 1010 29.83 839 24.78 -1.8 28.7 68 -7.1 19.3
17:35 1010 29.83 839 24.78 -1.8 28.7 67 -7.1 19.2
17:40 1010 29.83 839 24.78 -1.9 28.6 67 -7.2 19
17:45 1010 29.83 839 24.78 -1.8 28.7 67 -7.2 19.1
17:50 1010 29.83 839 24.78 -2 28.4 68 -7.1 19.3
17:55 1010 29.83 839 24.78 -2.3 27.9 69 -7.2 19
18:00 1010 29.83 839 24.78 -2.2 28 68 -7.4 18.7
18:05 1010 29.83 839 24.78 -2.2 28 67 -7.5 18.5
18:10 1010 29.83 839 24.78 -2.2 28.1 65 -7.8 18
18:15 1010 29.83 839 24.78 -2.3 27.8 66 -7.9 17.7
18:20 1010 29.83 839 24.78 -2.3 27.8 65 -8.1 17.4
18:25 1010 29.83 839 24.78 -2.3 27.8 65 -8.1 17.4
18:30 1010 29.83 839 24.78 -2.2 28 65 -8 17.6
18:35 1010 29.83 839 24.78 -2.4 27.6 66 -7.9 17.7
18:40 1010 29.83 839 24.78 -2.7 27.2 67 -8 17.5
18:45 1010 29.83 839 24.78 -2.7 27.2 67 -8 17.6
18:50 1010 29.83 839 24.78 -2.5 27.5 66 -8 17.5
18:55 1010 29.83 839 24.78 -2.5 27.6 66 -7.9 17.7
19:00 1010 29.83 839 24.78 -2.5 27.5 65 -8.2 17.3
19:05 1010 29.83 839 24.78 -2.5 27.5 65 -8.2 17.2
19:10 1010 29.83 839 24.78 -2 28.4 63 -8.1 17.4
19:15 1010 29.83 839 24.78 -1.8 28.8 63 -7.9 17.7
19:20 1010 29.83 839 24.78 -1.7 29 61 -8.2 17.3
19:25 1010 29.83 839 24.78 -1.8 28.7 63 -7.9 17.8
19:30 1010 29.83 839 24.78 -1.6 29.1 62 -8 17.6
19:35 1010 29.83 839 24.78 -1.8 28.7 66 -7.3 18.8
19:40 1010 29.83 839 24.78 -2.3 27.8 68 -7.4 18.6
19:45 1010 29.83 839 24.78 -2.5 27.5 69 -7.4 18.6
19:50 1010 29.83 839 24.78 -2.6 27.4 69 -7.4 18.6
19:55 1010 29.83 839 24.78 -2.6 27.3 69 -7.5 18.5
20:00 1010 29.83 839 24.78 -2.5 27.5 69 -7.5 18.5
20:05 1010 29.83 839 24.78 -2.4 27.7 68 -7.5 18.5
20:10 1010 29.83 839 24.78 -2.2 28 69 -7.3 18.9
20:15 1010 29.83 839 24.78 -2.4 27.7 70 -7.2 19.1
20:20 1010 29.83 839 24.78 -2.3 27.8 69 -7.2 19
20:25 1010 29.83 839 24.78 -2.3 27.8 70 -7.1 19.2
20:30 1010 29.83 839 24.78 -2.3 27.8 69 -7.3 18.9
20:35 1010 29.83 839 24.78 -2.5 27.6 70 -7.3 18.9
20:40 1010 29.83 839 24.78 -2.5 27.5 70 -7.2 19
20:45 1010 29.83 839 24.78 -2.3 27.8 70 -7.1 19.2
20:50 1010 29.83 839 24.78 -2.1 28.2 69 -7.1 19.2
20:55 1010 29.83 839 24.78 -2 28.4 66 -7.4 18.6
21:00 1010 29.83 839 24.78 -2.3 28 69 -7.1 19.2
21:05 1010 29.83 839 24.78 -2.4 27.7 70 -7.1 19.2
21:10 1010 29.83 839 24.78 -2.6 27.2 72 -6.9 19.5
21:15 1010 29.83 839 24.78 -2.8 26.9 72 -7.2 19
21:20 1010 29.83 839 24.78 -2.9 26.8 72 -7.2 19
21:25 1010 29.83 839 24.78 -3 26.6 73 -7.3 18.9
21:30 1010 29.83 839 24.78 -3.2 26.3 73 -7.3 18.9
21:35 1010 29.83 839 24.78 -3.2 26.2 74 -7.3 18.9
21:40 1010 29.83 839 24.78 -3.1 26.3 74 -7.2 19.1
21:45 1010 29.83 839 24.78 -3.1 26.5 72 -7.4 18.7
21:50 1010 29.83 839 24.78 -2.9 26.8 73 -7.1 19.2
21:55 1010 29.83 839 24.78 -2.6 27.3 70 -7.4 18.7
22:00 1010 29.83 839 24.78 -2.5 27.5 71 -7.1 19.2
22:05 1010 29.83 839 24.78 -2.6 27.3 73 -6.8 19.7
22:10 1010 29.83 839 24.78 -2.6 27.3 72 -6.9 19.5
22:15 1010 29.83 839 24.78 -2.8 27 74 -6.8 19.8
22:20 1010 29.83 839 24.78 -2.7 27.1 74 -6.7 20
22:25 1010 29.83 839 24.78 -2.7 27.1 75 -6.5 20.3
22:30 1010 29.83 839 24.78 -2.6 27.4 74 -6.6 20.1
22:35 1010 29.83 839 24.78 -2.6 27.4 73 -6.7 19.9
22:40 1010 29.83 839 24.78 -2.8 27.1 73 -6.9 19.5
22:45 1010 29.83 839 24.78 -2.9 26.8 75 -6.7 19.9
22:50 1010 29.83 839 24.78 -2.8 27 73 -6.9 19.5
22:55 1010 29.83 839 24.78 -2.8 26.9 74 -6.8 19.7
23:00 1010 29.83 839 24.78 -3 26.6 75 -6.8 19.8
23:05 1010 29.83 839 24.78 -3.1 26.5 75 -6.8 19.7
23:10 1010 29.83 839 24.78 -3.1 26.4 76 -6.8 19.8
23:15 1010 29.83 839 24.78 -3.1 26.4 76 -6.7 19.9
23:20 1010 29.83 839 24.78 -3.1 26.5 77 -6.6 20.1
23:25 1010 29.83 839 24.78 -3.1 26.4 78 -6.5 20.3
23:30 1010 29.83 839 24.78 -3.2 26.3 79 -6.3 20.6
23:35 1010 29.83 839 24.78 -3.2 26.2 79 -6.3 20.6
23:40 1010 29.83 839 24.78 -3.2 26.3 79 -6.3 20.7
23:45 1010 29.83 839 24.78 -3.1 26.3 79 -6.2 20.8
23:50 1010 29.83 839 24.78 -3.2 26.2 80 -6.2 20.8
23:55 1010 29.83 839 24.78 -3.1 26.4 80 -6.2 20.9
24:00 1010 29.83 839 24.78 -3.1 26.5 80 -6 21.1